FYLZ/LUD METAR and TAF weather

Enter ICAO airport designator
Station Type Date Time Source
FYLZ METAR 2018/05/30 15:00 UTC NOAA

FYLZ 301500Z AUTO 21020KT //// // ////// 18/09 Q1016


Station Type Date Time Source
FYLZ Decoded METAR 2018/05/30 15:00 UTC NOAA

Luderitz / Diaz Point, Namibia (FYLZ) 26-41S 015-15E
May 30, 2018 - 11:00 AM EDT / 2018.05.30 1500 UTC
Wind: from the SSW (210 degrees) at 23 MPH (20 KT):0
Temperature: 64 F (18 C)
Dew Point: 48 F (9 C)
Relative Humidity: 55%
Pressure (altimeter): 30.00 in. Hg (1016 hPa)
ob: FYLZ 301500Z AUTO 21020KT //// // ////// 18/09 Q1016
cycle: 15

Station Type Date Time Source
FYLZ TAF 2014/11/15 15:19 UTC NOAA

TAF FYLZ 151400Z 1515/1524 18015G28KT CAVOK
BECMG 1518/1520 16020KT


Example: see airport list